Sumifukumaru No.5 — JD3058 — position and weather

sailwx.info

Track history (hours):
 
Tides and Currents Weather Stations Pressure Air Temp Water Temp Dewpoint Dewpoint Depression Visibility Wind Speed Wind Dir Waves Ship Positions

Sumifukumaru No.5

Last reported at 2014-Sep-13 20:27 UTC. Time now 2014-Sep-17 19:36 UTC.
Position N 35°01' E 139°30'.

Length 75 m; draft 4.4 m.

Type: Cargo ship. MMSI: 431001371.

Date/timePositionNaut miles runAvg speedWind from/ knotsBaromVisibWave heightAir tempDewpointWater temp
2014-Sep-13 20:27N 35°01' E 139°30'1313.9
2014-Sep-13 19:32N 35°08' E 139°43'1111.1
2014-Sep-13 18:33N 35°19' E 139°43'7 7.0
2014-Sep-13 17:33N 35°23' E 139°50'3 3.1
2014-Sep-13 16:30N 35°22' E 139°54'0 0.0
2014-Sep-13 15:30N 35°22' E 139°54'0 0.0
2014-Sep-13 14:33N 35°22' E 139°54'0 0.0
2014-Sep-13 13:33N 35°22' E 139°54'0 0.0
2014-Sep-13 12:30N 35°22' E 139°54'0 0.0
2014-Sep-13 11:30N 35°22' E 139°54'0 0.0
2014-Sep-13 10:30N 35°22' E 139°54'0 0.0
2014-Sep-13 09:30N 35°22' E 139°54'0 0.0
2014-Sep-13 08:30N 35°22' E 139°54'0 0.0
2014-Sep-13 07:30N 35°22' E 139°54'0 0.0
2014-Sep-13 06:30N 35°22' E 139°54'0 0.0
2014-Sep-13 05:33N 35°22' E 139°54'0 0.0
2014-Sep-13 04:33N 35°22' E 139°54'0 0.0
2014-Sep-13 03:33N 35°22' E 139°54'0 0.0
2014-Sep-13 02:30N 35°22' E 139°54'0 0.0
2014-Sep-13 01:30N 35°22' E 139°54'0 0.0
2014-Sep-13 00:30N 35°22' E 139°54'0 0.0
2014-Sep-12 23:33N 35°22' E 139°54'3 3.1
2014-Sep-12 22:33N 35°23' E 139°51'0 0.0
2014-Sep-12 21:32N 35°23' E 139°51'0 0.0
2014-Sep-12 20:32N 35°23' E 139°51'0 0.0
2014-Sep-12 19:32N 35°23' E 139°51'0 0.0
2014-Sep-12 18:29N 35°23' E 139°51'0 0.0
2014-Sep-12 17:29N 35°23' E 139°51'0 0.0
2014-Sep-12 16:32N 35°23' E 139°51'0 0.0
2014-Sep-12 15:32N 35°23' E 139°51'0 0.0
2014-Sep-12 14:23N 35°23' E 139°51'0 0.0
2014-Sep-12 13:32N 35°23' E 139°51'0 0.0
2014-Sep-12 12:32N 35°24' E 139°51'0 0.0
2014-Sep-12 11:32N 35°24' E 139°51'0 0.0
2014-Sep-12 10:31N 35°24' E 139°51'8 8.6
2014-Sep-12 09:34N 35°32' E 139°53'1010.1
2014-Sep-12 08:33N 35°41' E 139°57'0 0.0
2014-Sep-12 07:33N 35°41' E 139°57'0 0.0
2014-Sep-12 06:33N 35°41' E 139°57'0 0.0
2014-Sep-12 05:33N 35°41' E 139°57'0 0.0
2014-Sep-12 04:30N 35°41' E 139°57'2 2.2
2014-Sep-12 03:33N 35°39' E 139°58'2 2.1
2014-Sep-12 02:32N 35°37' E 139°58'0 0.0
2014-Sep-12 01:29N 35°37' E 139°58'0 0.0
2014-Sep-12 00:32N 35°37' E 139°58'0 0.0
2014-Sep-11 23:32N 35°37' E 139°58'0 0.0
2014-Sep-11 22:29N 35°37' E 139°58'0 0.0
2014-Sep-11 21:29N 35°37' E 139°58'0 0.0
2014-Sep-11 20:29N 35°37' E 139°58'0 0.1
2014-Sep-11 19:29N 35°37' E 139°58'0 0.0
2014-Sep-11 18:32N 35°37' E 139°58'0 0.0
2014-Sep-11 17:20N 35°37' E 139°58'0 0.0
2014-Sep-11 16:32N 35°37' E 139°58'0 0.0
2014-Sep-11 15:23N 35°37' E 139°58'0 0.0
2014-Sep-11 14:29N 35°37' E 139°58'0 0.0
2014-Sep-11 13:29N 35°37' E 139°58'0 0.0
2014-Sep-11 12:32N 35°37' E 139°58'0 0.0
2014-Sep-11 11:32N 35°37' E 139°58'0 0.1
2014-Sep-11 10:29N 35°37' E 139°58'0 0.0
2014-Sep-11 09:32N 35°37' E 139°58'0 0.0
2014-Sep-11 08:29N 35°37' E 139°58'0 0.1
2014-Sep-11 07:33N 35°37' E 139°58'9 9.4
2014-Sep-11 06:33N 35°29' E 139°52'1311.8
2014-Sep-11 05:28N 35°18' E 139°45'1011.3
2014-Sep-11 04:33N 35°08' E 139°45'  
Track history (hours):
 
Tides and Currents Weather Stations Pressure Air Temp Water Temp Dewpoint Dewpoint Depression Visibility Wind Speed Wind Dir Waves Ship Positions

Sumifukumaru No.5

Last reported at 2014-Sep-13 20:27 UTC. Time now 2014-Sep-17 19:36 UTC.
Position N 35°01' E 139°30'.

Length 75 m; draft 4.4 m.

Type: Cargo ship. MMSI: 431001371.

Date/timePositionNaut miles runAvg speedWind from/ knotsBaromVisibWave heightAir tempDewpointWater temp
2014-Sep-13 20:27N 35°01' E 139°30'1313.9
2014-Sep-13 19:32N 35°08' E 139°43'1111.1
2014-Sep-13 18:33N 35°19' E 139°43'7 7.0
2014-Sep-13 17:33N 35°23' E 139°50'3 3.1
2014-Sep-13 16:30N 35°22' E 139°54'0 0.0
2014-Sep-13 15:30N 35°22' E 139°54'0 0.0
2014-Sep-13 14:33N 35°22' E 139°54'0 0.0
2014-Sep-13 13:33N 35°22' E 139°54'0 0.0
2014-Sep-13 12:30N 35°22' E 139°54'0 0.0
2014-Sep-13 11:30N 35°22' E 139°54'0 0.0
2014-Sep-13 10:30N 35°22' E 139°54'0 0.0
2014-Sep-13 09:30N 35°22' E 139°54'0 0.0
2014-Sep-13 08:30N 35°22' E 139°54'0 0.0
2014-Sep-13 07:30N 35°22' E 139°54'0 0.0
2014-Sep-13 06:30N 35°22' E 139°54'0 0.0
2014-Sep-13 05:33N 35°22' E 139°54'0 0.0
2014-Sep-13 04:33N 35°22' E 139°54'0 0.0
2014-Sep-13 03:33N 35°22' E 139°54'0 0.0
2014-Sep-13 02:30N 35°22' E 139°54'0 0.0
2014-Sep-13 01:30N 35°22' E 139°54'0 0.0
2014-Sep-13 00:30N 35°22' E 139°54'0 0.0
2014-Sep-12 23:33N 35°22' E 139°54'3 3.1
2014-Sep-12 22:33N 35°23' E 139°51'0 0.0
2014-Sep-12 21:32N 35°23' E 139°51'0 0.0
2014-Sep-12 20:32N 35°23' E 139°51'0 0.0
2014-Sep-12 19:32N 35°23' E 139°51'0 0.0
2014-Sep-12 18:29N 35°23' E 139°51'0 0.0
2014-Sep-12 17:29N 35°23' E 139°51'0 0.0
2014-Sep-12 16:32N 35°23' E 139°51'0 0.0
2014-Sep-12 15:32N 35°23' E 139°51'0 0.0
2014-Sep-12 14:23N 35°23' E 139°51'0 0.0
2014-Sep-12 13:32N 35°23' E 139°51'0 0.0
2014-Sep-12 12:32N 35°24' E 139°51'0 0.0
2014-Sep-12 11:32N 35°24' E 139°51'0 0.0
2014-Sep-12 10:31N 35°24' E 139°51'8 8.6
2014-Sep-12 09:34N 35°32' E 139°53'1010.1
2014-Sep-12 08:33N 35°41' E 139°57'0 0.0
2014-Sep-12 07:33N 35°41' E 139°57'0 0.0
2014-Sep-12 06:33N 35°41' E 139°57'0 0.0
2014-Sep-12 05:33N 35°41' E 139°57'0 0.0
2014-Sep-12 04:30N 35°41' E 139°57'2 2.2
2014-Sep-12 03:33N 35°39' E 139°58'2 2.1
2014-Sep-12 02:32N 35°37' E 139°58'0 0.0
2014-Sep-12 01:29N 35°37' E 139°58'0 0.0
2014-Sep-12 00:32N 35°37' E 139°58'0 0.0
2014-Sep-11 23:32N 35°37' E 139°58'0 0.0
2014-Sep-11 22:29N 35°37' E 139°58'0 0.0
2014-Sep-11 21:29N 35°37' E 139°58'0 0.0
2014-Sep-11 20:29N 35°37' E 139°58'0 0.1
2014-Sep-11 19:29N 35°37' E 139°58'0 0.0
2014-Sep-11 18:32N 35°37' E 139°58'0 0.0
2014-Sep-11 17:20N 35°37' E 139°58'0 0.0
2014-Sep-11 16:32N 35°37' E 139°58'0 0.0
2014-Sep-11 15:23N 35°37' E 139°58'0 0.0
2014-Sep-11 14:29N 35°37' E 139°58'0 0.0
2014-Sep-11 13:29N 35°37' E 139°58'0 0.0
2014-Sep-11 12:32N 35°37' E 139°58'0 0.0
2014-Sep-11 11:32N 35°37' E 139°58'0 0.1
2014-Sep-11 10:29N 35°37' E 139°58'0 0.0
2014-Sep-11 09:32N 35°37' E 139°58'0 0.0
2014-Sep-11 08:29N 35°37' E 139°58'0 0.1
2014-Sep-11 07:33N 35°37' E 139°58'9 9.4
2014-Sep-11 06:33N 35°29' E 139°52'1311.8
2014-Sep-11 05:28N 35°18' E 139°45'1011.3
2014-Sep-11 04:33N 35°08' E 139°45'  

Dump ship's entire track history